Time;durP1;ratioP1;P1;durP2;ratioP2;P2;SDS_P1;SDS_P2;PMS_P1;PMS_P2;Temp;Humidity;BMP_temperature;BMP_pressure;BME280_temperature;BME280_humidity;BME280_pressure;Samples;Min_cycle;Max_cycle;Signal;HPM_P1;HPM_P2
2024/04/16 00:00:44;;;;;;;3.27;1.03;;;7.40;97.60;;;;;;5527958;25;20241;-56
2024/04/16 00:03:13;;;;;;;2.90;0.80;;;7.40;97.20;;;;;;5528285;25;20462;-56
2024/04/16 00:05:38;;;;;;;2.30;1.10;;;7.40;97.60;;;;;;5528339;25;20454;-56
2024/04/16 00:08:07;;;;;;;4.70;1.07;;;7.40;97.40;;;;;;5528306;25;21093;-56
2024/04/16 00:10:33;;;;;;;3.50;0.77;;;7.40;97.10;;;;;;5527946;25;20280;-56
2024/04/16 00:13:02;;;;;;;5.13;1.53;;;7.40;97.40;;;;;;5528270;25;20532;-56
2024/04/16 00:15:28;;;;;;;2.90;1.30;;;7.40;97.60;;;;;;5528148;25;20408;-56
2024/04/16 00:17:59;;;;;;;3.13;1.10;;;7.40;97.80;;;;;;5527952;25;20961;-56
2024/04/16 00:20:25;;;;;;;4.73;1.30;;;7.50;97.70;;;;;;5528159;25;20230;-56
2024/04/16 00:22:53;;;;;;;2.50;1.30;;;7.50;97.90;;;;;;5527776;25;20546;-56
2024/04/16 00:25:20;;;;;;;11.00;1.87;;;7.40;97.90;;;;;;5527776;25;20217;-57
2024/04/16 00:27:48;;;;;;;4.30;1.10;;;7.40;98.20;;;;;;5527733;25;20438;-56
2024/04/16 00:30:14;;;;;;;2.10;1.47;;;7.40;98.20;;;;;;5527700;25;20470;-57
2024/04/16 00:32:42;;;;;;;6.33;1.57;;;7.40;98.40;;;;;;5527844;25;20454;-57
2024/04/16 00:35:11;;;;;;;6.70;1.33;;;7.50;98.80;;;;;;5527888;25;20465;-57
2024/04/16 00:37:39;;;;;;;5.67;1.77;;;7.50;99.00;;;;;;5527623;25;20803;-57
2024/04/16 00:40:06;;;;;;;1.97;0.90;;;7.40;99.20;;;;;;5527638;25;20972;-57
2024/04/16 00:42:34;;;;;;;2.00;1.23;;;7.50;99.10;;;;;;5527476;25;20450;-57
2024/04/16 00:45:02;;;;;;;4.87;1.23;;;7.50;99.00;;;;;;5527713;25;20466;-57
2024/04/16 00:47:30;;;;;;;2.87;1.10;;;7.50;99.10;;;;;;5527591;25;20442;-57
2024/04/16 00:49:56;;;;;;;2.80;1.20;;;7.50;99.30;;;;;;5527457;25;20458;-58
2024/04/16 00:52:27;;;;;;;3.37;1.10;;;7.60;99.50;;;;;;5527603;25;20484;-59
2024/04/16 00:54:53;;;;;;;2.80;1.13;;;7.50;99.50;;;;;;5527494;25;20453;-58
2024/04/16 00:57:23;;;;;;;2.20;0.90;;;7.50;99.20;;;;;;5527485;25;20571;-58
2024/04/16 00:59:51;;;;;;;3.90;1.50;;;7.50;99.00;;;;;;5527182;25;20229;-58
2024/04/16 01:02:21;;;;;;;4.70;1.57;;;7.50;98.60;;;;;;5526999;25;21100;-58
2024/04/16 01:04:47;;;;;;;5.70;1.40;;;7.50;98.40;;;;;;5527379;25;20507;-58
2024/04/16 01:07:16;;;;;;;3.77;1.97;;;7.50;98.50;;;;;;5527290;25;21030;-58
2024/04/16 01:09:44;;;;;;;3.97;1.40;;;7.50;98.60;;;;;;5527193;25;20470;-58
2024/04/16 01:12:13;;;;;;;3.77;1.67;;;7.50;98.30;;;;;;5527387;25;20442;-58
2024/04/16 01:14:38;;;;;;;3.93;1.00;;;7.50;98.10;;;;;;5527228;25;20462;-58
2024/04/16 01:17:07;;;;;;;7.87;1.50;;;7.50;98.00;;;;;;5527108;25;20450;-57
2024/04/16 01:19:33;;;;;;;1.37;1.10;;;7.40;98.00;;;;;;5527071;25;20237;-57
2024/04/16 01:22:01;;;;;;;1.80;1.50;;;7.40;97.80;;;;;;5527064;25;20442;-58
2024/04/16 01:24:29;;;;;;;6.37;1.17;;;7.40;97.90;;;;;;5526856;25;20217;-58
2024/04/16 01:26:59;;;;;;;3.50;1.20;;;7.30;97.60;;;;;;5527059;25;20442;-58
2024/04/16 01:29:25;;;;;;;4.40;1.43;;;7.30;97.50;;;;;;5526717;25;20458;-57
2024/04/16 01:31:53;;;;;;;3.53;1.20;;;7.30;97.40;;;;;;5526669;25;20450;-57
2024/04/16 01:34:19;;;;;;;4.43;1.40;;;7.30;97.30;;;;;;5525866;25;20239;-57
2024/04/16 01:36:47;;;;;;;5.47;1.70;;;7.30;97.10;;;;;;5526804;25;20555;-58
2024/04/16 01:39:13;;;;;;;5.57;1.37;;;7.30;97.30;;;;;;5526454;25;20707;-58
2024/04/16 01:41:44;;;;;;;6.03;1.43;;;7.30;97.10;;;;;;5526670;25;20450;-58
2024/04/16 01:44:10;;;;;;;5.90;2.53;;;7.30;97.00;;;;;;5526813;25;20206;-58
2024/04/16 01:46:38;;;;;;;4.00;1.77;;;7.30;97.00;;;;;;5526969;25;20577;-58
2024/04/16 01:49:04;;;;;;;4.93;1.60;;;7.30;96.90;;;;;;5526403;25;20241;-57
2024/04/16 01:51:33;;;;;;;3.60;1.30;;;7.30;96.60;;;;;;5526520;25;20562;-57
2024/04/16 01:53:58;;;;;;;4.10;1.20;;;7.20;96.60;;;;;;5526488;25;20221;-58
2024/04/16 01:56:27;;;;;;;5.33;2.53;;;7.20;96.70;;;;;;5526686;25;20554;-58
2024/04/16 01:58:55;;;;;;;6.90;1.63;;;7.20;96.70;;;;;;5526884;25;20245;-57
2024/04/16 02:01:24;;;;;;;2.27;1.40;;;7.20;96.80;;;;;;5526602;25;20983;-57
2024/04/16 02:03:50;;;;;;;6.00;1.43;;;7.20;96.60;;;;;;5526515;25;20495;-57
2024/04/16 02:06:18;;;;;;;4.07;1.50;;;7.20;96.50;;;;;;5526048;25;20507;-57
2024/04/16 02:08:44;;;;;;;4.13;1.23;;;7.20;96.70;;;;;;5526141;25;21096;-57
2024/04/16 02:11:13;;;;;;;8.60;1.77;;;7.20;96.70;;;;;;5525900;25;20450;-57
2024/04/16 02:13:38;;;;;;;10.53;1.23;;;7.20;96.80;;;;;;5525807;25;20225;-57
2024/04/16 02:16:10;;;;;;;2.30;0.90;;;7.20;96.60;;;;;;5525638;25;20567;-57
2024/04/16 02:18:36;;;;;;;5.67;1.20;;;7.20;96.60;;;;;;5525738;25;20210;-58
2024/04/16 02:21:04;;;;;;;3.20;1.50;;;7.20;96.60;;;;;;5525641;25;20489;-57
2024/04/16 02:23:30;;;;;;;6.73;1.23;;;7.20;96.60;;;;;;5525735;25;20450;-57
2024/04/16 02:25:59;;;;;;;3.80;1.30;;;7.20;96.40;;;;;;5525506;25;20498;-56
2024/04/16 02:28:25;;;;;;;3.70;1.00;;;7.10;96.40;;;;;;5525646;25;20229;-57
2024/04/16 02:30:53;;;;;;;6.43;0.83;;;7.10;96.30;;;;;;5525383;25;20445;-57
2024/04/16 02:33:22;;;;;;;3.30;1.60;;;7.10;96.50;;;;;;5525614;25;20643;-57
2024/04/16 02:35:50;;;;;;;6.57;1.43;;;7.10;96.30;;;;;;5525444;25;20625;-57
2024/04/16 02:38:16;;;;;;;4.43;0.90;;;7.10;96.60;;;;;;5525155;25;20803;-57
2024/04/16 02:40:45;;;;;;;9.63;1.30;;;7.10;96.60;;;;;;5524659;25;20517;-57
2024/04/16 02:43:11;;;;;;;5.40;1.13;;;7.10;96.70;;;;;;5525216;25;20219;-57
2024/04/16 02:45:41;;;;;;;5.20;1.70;;;7.10;96.60;;;;;;5526904;25;20668;-57
2024/04/16 02:48:06;;;;;;;3.47;1.13;;;7.10;96.60;;;;;;5528875;25;20458;-58
2024/04/16 02:50:38;;;;;;;3.03;1.50;;;7.10;97.20;;;;;;5528756;25;20506;-59
2024/04/16 02:53:04;;;;;;;6.13;1.63;;;7.10;97.60;;;;;;5528950;25;20319;-59
2024/04/16 02:55:32;;;;;;;9.63;1.40;;;7.10;97.70;;;;;;5528833;25;20450;-59
2024/04/16 02:57:58;;;;;;;5.37;1.67;;;7.10;98.30;;;;;;5528752;25;20926;-58
2024/04/16 03:00:27;;;;;;;4.67;1.30;;;7.10;98.50;;;;;;5528348;25;20473;-57
2024/04/16 03:02:53;;;;;;;4.80;1.23;;;7.10;98.90;;;;;;5528812;25;20573;-58
2024/04/16 03:05:21;;;;;;;4.30;2.47;;;7.10;99.00;;;;;;5528897;25;20559;-58
2024/04/16 03:07:51;;;;;;;9.03;1.50;;;7.00;99.30;;;;;;5529255;25;20218;-58
2024/04/16 03:10:20;;;;;;;3.77;1.57;;;7.00;99.90;;;;;;5528678;25;20469;-58
2024/04/16 03:12:46;;;;;;;7.53;1.70;;;7.00;99.90;;;;;;5528852;25;21118;-58
2024/04/16 03:15:15;;;;;;;6.33;1.80;;;7.10;99.90;;;;;;5528687;25;20442;-57
2024/04/16 03:17:41;;;;;;;3.50;1.70;;;7.10;99.90;;;;;;5528878;25;20860;-57
2024/04/16 03:20:10;;;;;;;5.47;1.80;;;7.10;99.90;;;;;;5528921;25;20505;-59
2024/04/16 03:22:36;;;;;;;7.83;2.10;;;7.10;99.90;;;;;;5528794;25;20221;-58
2024/04/16 03:25:08;;;;;;;10.57;2.20;;;7.10;99.90;;;;;;5528879;25;21073;-58
2024/04/16 03:27:33;;;;;;;7.87;1.77;;;7.10;99.90;;;;;;5528820;25;20707;-57
2024/04/16 03:30:02;;;;;;;5.03;2.10;;;7.10;99.90;;;;;;5528546;25;20575;-58
2024/04/16 03:32:28;;;;;;;5.30;1.70;;;7.00;99.90;;;;;;5528596;25;20225;-57
2024/04/16 03:34:56;;;;;;;4.97;1.73;;;7.00;99.90;;;;;;5528458;25;20449;-57
2024/04/16 03:37:25;;;;;;;5.47;1.67;;;7.00;99.90;;;;;;5528463;25;20258;-57
2024/04/16 03:39:53;;;;;;;5.27;1.80;;;7.00;99.90;;;;;;5528356;25;20450;-57
2024/04/16 03:42:24;;;;;;;3.60;1.57;;;7.10;99.90;;;;;;5528339;25;21027;-57
2024/04/16 03:44:55;;;;;;;5.20;1.70;;;7.00;99.90;;;;;;5528431;25;20446;-58
2024/04/16 03:47:21;;;;;;;7.10;2.60;;;7.00;99.90;;;;;;5528015;25;20985;-57
2024/04/16 03:49:50;;;;;;;4.13;1.40;;;7.00;99.90;;;;;;5528242;25;20458;-56
2024/04/16 03:52:15;;;;;;;4.03;1.30;;;7.00;99.90;;;;;;5527954;25;20313;-57
2024/04/16 03:54:44;;;;;;;8.17;1.33;;;7.00;99.90;;;;;;5528241;25;20462;-57
2024/04/16 03:57:10;;;;;;;2.87;0.80;;;6.90;99.90;;;;;;5527458;25;20248;-57
2024/04/16 04:00:59;;;;;;;1.03;1.03;;;6.90;99.90;;;;;;5528108;25;20462;-57
2024/04/16 04:02:27;;;;;;;3.40;1.40;;;6.90;99.90;;;;;;5527609;26;20273;-57
2024/04/16 04:04:55;;;;;;;1.83;1.20;;;6.90;99.90;;;;;;5528163;25;20555;-57
2024/04/16 04:07:21;;;;;;;3.47;1.80;;;6.90;99.90;;;;;;5527633;25;20310;-57
2024/04/16 04:09:50;;;;;;;3.17;1.40;;;6.80;99.90;;;;;;5527902;25;20471;-56
2024/04/16 04:12:16;;;;;;;3.40;2.00;;;6.80;99.90;;;;;;5527955;25;20252;-57
2024/04/16 04:14:47;;;;;;;8.10;2.00;;;6.80;99.90;;;;;;5528058;25;20450;-58
2024/04/16 04:17:13;;;;;;;4.70;2.23;;;6.80;99.90;;;;;;5527888;25;20458;-58
2024/04/16 04:19:41;;;;;;;4.93;2.37;;;6.90;99.90;;;;;;5527864;25;20808;-58
2024/04/16 04:22:07;;;;;;;15.53;2.67;;;6.90;99.90;;;;;;5527683;25;20225;-58
2024/04/16 04:24:35;;;;;;;6.90;2.40;;;6.90;99.90;;;;;;5527684;25;21004;-58
2024/04/16 04:27:02;;;;;;;6.77;2.23;;;6.80;99.90;;;;;;5527986;25;20214;-58
2024/04/16 04:29:33;;;;;;;4.47;2.23;;;6.90;99.90;;;;;;5527693;25;20465;-58
2024/04/16 04:32:01;;;;;;;6.43;2.00;;;6.90;99.90;;;;;;5527692;25;20991;-58
2024/04/16 04:34:30;;;;;;;6.60;1.90;;;6.90;99.90;;;;;;5527840;25;20453;-58
2024/04/16 04:36:55;;;;;;;6.00;1.80;;;6.90;99.90;;;;;;5527645;25;20450;-58
2024/04/16 04:39:24;;;;;;;9.10;1.47;;;6.90;99.90;;;;;;5527478;25;20582;-58
2024/04/16 04:41:50;;;;;;;5.20;2.43;;;7.00;99.90;;;;;;5527604;25;20330;-59
2024/04/16 04:44:18;;;;;;;3.60;1.67;;;7.00;99.90;;;;;;5527530;25;20892;-57
2024/04/16 04:46:44;;;;;;;3.40;1.60;;;7.00;99.90;;;;;;5527455;25;20802;-58
2024/04/16 04:49:15;;;;;;;9.30;2.93;;;7.00;99.90;;;;;;5527649;25;20466;-58
2024/04/16 04:51:41;;;;;;;4.90;2.00;;;7.10;99.90;;;;;;5527430;25;20221;-57
2024/04/16 04:54:09;;;;;;;4.87;2.00;;;7.10;99.90;;;;;;5527560;25;20543;-58
2024/04/16 04:56:35;;;;;;;8.53;2.00;;;7.10;99.90;;;;;;5527483;25;20282;-58
2024/04/16 04:59:04;;;;;;;5.10;1.73;;;7.10;99.90;;;;;;5527338;25;20458;-58
2024/04/16 05:01:29;;;;;;;7.90;2.17;;;7.10;99.90;;;;;;5527172;25;20290;-57
2024/04/16 05:03:58;;;;;;;5.87;2.30;;;7.20;99.90;;;;;;5527282;25;20870;-58
2024/04/16 05:06:26;;;;;;;6.70;1.80;;;7.20;99.90;;;;;;5527322;25;20225;-58
2024/04/16 05:08:55;;;;;;;7.80;2.13;;;7.20;99.90;;;;;;5525629;25;20470;-57
2024/04/16 05:11:20;;;;;;;3.47;1.70;;;7.20;99.90;;;;;;5527272;25;20513;-57
2024/04/16 05:13:49;;;;;;;4.27;1.67;;;7.20;99.90;;;;;;5527039;25;20980;-57
2024/04/16 05:16:15;;;;;;;5.33;2.53;;;7.20;99.90;;;;;;5526962;25;20263;-57
2024/04/16 05:18:44;;;;;;;7.20;2.30;;;7.30;99.90;;;;;;5526973;25;20438;-58
2024/04/16 05:21:10;;;;;;;3.80;1.47;;;7.30;99.90;;;;;;5529752;25;20613;-58
2024/04/16 05:23:41;;;;;;;3.23;1.53;;;7.30;99.90;;;;;;5529688;25;20454;-58
2024/04/16 05:26:07;;;;;;;6.47;2.17;;;7.40;99.90;;;;;;5529653;25;20304;-58
2024/04/16 05:28:35;;;;;;;6.73;1.83;;;7.50;99.90;;;;;;5526863;25;20458;-57
2024/04/16 05:31:04;;;;;;;2.23;1.40;;;7.50;99.90;;;;;;5526704;25;20450;-57
2024/04/16 05:33:30;;;;;;;5.10;1.57;;;7.50;99.90;;;;;;5526689;25;20987;-57
2024/04/16 05:35:58;;;;;;;2.93;1.43;;;7.50;99.90;;;;;;5526878;25;20497;-57
2024/04/16 05:38:24;;;;;;;5.13;1.37;;;7.50;99.90;;;;;;5526691;25;20278;-57
2024/04/16 05:40:55;;;;;;;3.40;1.20;;;7.50;99.90;;;;;;5526615;25;20466;-57
2024/04/16 05:43:21;;;;;;;5.13;1.80;;;7.40;99.90;;;;;;5526676;25;20450;-57
2024/04/16 05:45:49;;;;;;;2.33;2.00;;;7.50;99.90;;;;;;5526628;25;20898;-57
2024/04/16 05:48:15;;;;;;;3.57;1.37;;;7.50;99.90;;;;;;5526464;25;20661;-57
2024/04/16 05:50:44;;;;;;;7.13;1.70;;;7.50;99.90;;;;;;5526514;25;20450;-57
2024/04/16 05:53:10;;;;;;;3.50;1.40;;;7.50;99.90;;;;;;5526327;25;20317;-58
2024/04/16 05:55:38;;;;;;;4.30;1.63;;;7.50;99.90;;;;;;5526506;25;20853;-58
2024/04/16 05:58:08;;;;;;;5.47;1.70;;;7.50;99.90;;;;;;5526449;25;20520;-58
2024/04/16 06:00:38;;;;;;;5.40;1.80;;;7.50;99.90;;;;;;5526152;25;21071;-58
2024/04/16 06:03:04;;;;;;;5.10;1.70;;;7.60;99.90;;;;;;5526272;25;20450;-58
2024/04/16 06:05:33;;;;;;;2.50;1.20;;;7.60;99.90;;;;;;5526283;25;20503;-58
2024/04/16 06:07:59;;;;;;;5.23;2.37;;;7.60;99.90;;;;;;5526308;25;20522;-58
2024/04/16 06:10:27;;;;;;;9.10;1.73;;;7.60;99.90;;;;;;5525786;25;20450;-58
2024/04/16 06:12:53;;;;;;;4.90;1.67;;;7.60;99.90;;;;;;5526142;25;20225;-59
2024/04/16 06:15:24;;;;;;;3.67;1.87;;;7.70;99.90;;;;;;5526055;25;20565;-57
2024/04/16 06:17:50;;;;;;;3.47;1.97;;;7.70;99.90;;;;;;5526089;25;20210;-57
2024/04/16 06:20:19;;;;;;;5.87;1.83;;;7.60;99.90;;;;;;5528751;25;20454;-57
2024/04/16 06:22:46;;;;;;;5.63;1.87;;;7.70;99.90;;;;;;5529514;25;20441;-57
2024/04/16 06:25:14;;;;;;;10.00;2.10;;;7.60;99.90;;;;;;5529630;25;20450;-58
2024/04/16 06:27:40;;;;;;;3.50;1.60;;;7.60;99.90;;;;;;5529522;25;20649;-58
2024/04/16 06:30:10;;;;;;;1.97;1.70;;;7.60;99.90;;;;;;5529305;25;21007;-57
2024/04/16 06:32:38;;;;;;;9.50;2.10;;;7.50;99.90;;;;;;5529435;25;20221;-58
2024/04/16 06:35:07;;;;;;;3.23;1.93;;;7.50;99.90;;;;;;5529338;25;20502;-57
2024/04/16 06:37:33;;;;;;;3.27;1.80;;;7.50;99.90;;;;;;5529423;25;20465;-58
2024/04/16 06:40:01;;;;;;;5.23;1.73;;;7.40;99.90;;;;;;5529164;25;21123;-58
2024/04/16 06:42:27;;;;;;;6.73;1.70;;;7.40;99.90;;;;;;5529144;25;20213;-58
2024/04/16 06:44:55;;;;;;;7.33;2.10;;;7.40;99.90;;;;;;5528582;25;20496;-58
2024/04/16 06:47:21;;;;;;;5.40;1.60;;;7.40;99.90;;;;;;5529288;25;20245;-58
2024/04/16 06:49:52;;;;;;;2.60;2.03;;;7.40;99.90;;;;;;5529257;25;20521;-58
2024/04/16 06:52:18;;;;;;;3.93;1.50;;;7.30;99.90;;;;;;5529367;25;20217;-58
2024/04/16 06:54:47;;;;;;;3.07;1.20;;;7.20;99.90;;;;;;5529099;25;20785;-57
2024/04/16 06:57:13;;;;;;;4.53;0.97;;;7.20;99.90;;;;;;5529273;25;20213;-58
2024/04/16 06:59:42;;;;;;;3.87;0.87;;;7.10;99.90;;;;;;5529080;25;21006;-58
2024/04/16 07:02:08;;;;;;;2.97;0.93;;;7.00;99.90;;;;;;5529239;25;20466;-58
2024/04/16 07:04:36;;;;;;;1.50;1.03;;;7.10;99.90;;;;;;5529146;25;20502;-58
2024/04/16 07:07:05;;;;;;;1.77;1.03;;;7.00;99.90;;;;;;5529099;26;20788;-58
2024/04/16 07:09:33;;;;;;;2.60;1.10;;;7.10;99.90;;;;;;5528834;25;20468;-57
2024/04/16 07:11:59;;;;;;;4.23;1.13;;;7.10;99.90;;;;;;5529058;25;20453;-58
2024/04/16 07:14:27;;;;;;;2.73;1.20;;;7.10;99.90;;;;;;5528999;25;20979;-58
2024/04/16 07:16:54;;;;;;;1.90;0.97;;;7.10;99.90;;;;;;5528933;25;20214;-59
2024/04/16 07:19:22;;;;;;;1.10;0.90;;;7.10;99.90;;;;;;5528874;25;20469;-59
2024/04/16 07:21:48;;;;;;;2.57;0.90;;;7.20;99.90;;;;;;5528919;25;20458;-59
2024/04/16 07:24:19;;;;;;;0.60;0.60;;;7.20;99.90;;;;;;5528783;25;20505;-58
2024/04/16 07:26:45;;;;;;;1.00;1.00;;;7.10;99.90;;;;;;5528910;25;20301;-59
2024/04/16 07:29:13;;;;;;;1.17;0.80;;;7.10;99.90;;;;;;5523235;25;20466;-58
2024/04/16 07:31:39;;;;;;;1.60;1.00;;;7.20;99.90;;;;;;5527520;25;20233;-59
2024/04/16 07:34:08;;;;;;;3.37;0.80;;;7.20;99.90;;;;;;5505420;25;20519;-58
2024/04/16 07:36:34;;;;;;;1.70;1.47;;;7.20;99.90;;;;;;5507818;26;20270;-58
2024/04/16 07:39:02;;;;;;;2.97;1.20;;;7.20;99.90;;;;;;5491767;26;20543;-58
2024/04/16 07:41:31;;;;;;;2.00;1.40;;;7.30;99.90;;;;;;5508901;26;20461;-58
2024/04/16 07:43:59;;;;;;;1.80;1.53;;;7.30;99.90;;;;;;5526182;25;20497;-57
2024/04/16 07:46:25;;;;;;;3.73;1.63;;;7.40;99.90;;;;;;5493692;26;20523;-58
2024/04/16 07:48:54;;;;;;;7.07;1.90;;;7.50;99.90;;;;;;5491593;26;20592;-58
2024/04/16 07:51:20;;;;;;;1.63;1.40;;;7.60;99.90;;;;;;5491674;26;20510;-58
2024/04/16 07:53:48;;;;;;;1.93;1.33;;;7.80;99.90;;;;;;5491572;26;20464;-58
2024/04/16 07:56:15;;;;;;;4.63;1.80;;;7.80;99.90;;;;;;5491257;26;20988;-58
2024/04/16 07:58:46;;;;;;;3.17;1.63;;;7.90;99.90;;;;;;5491486;26;20455;-58
2024/04/16 08:01:14;;;;;;;2.63;2.00;;;8.00;99.90;;;;;;5491424;26;20496;-58
2024/04/16 08:03:42;;;;;;;6.20;2.07;;;8.10;99.90;;;;;;5491413;26;20503;-58
2024/04/16 08:06:10;;;;;;;5.47;2.60;;;8.10;99.90;;;;;;5490740;26;20455;-57
2024/04/16 08:08:39;;;;;;;3.10;2.43;;;8.20;99.90;;;;;;5491360;26;20512;-57
2024/04/16 08:11:08;;;;;;;6.13;2.60;;;8.20;99.90;;;;;;5491145;26;20451;-57
2024/04/16 08:13:37;;;;;;;3.73;2.40;;;8.30;99.90;;;;;;5491030;26;20560;-58
2024/04/16 08:16:05;;;;;;;3.67;1.83;;;8.30;99.90;;;;;;5490859;26;20451;-57
2024/04/16 08:18:34;;;;;;;4.00;2.57;;;8.30;99.90;;;;;;5490922;26;20452;-57
2024/04/16 08:21:00;;;;;;;4.73;3.10;;;8.40;99.90;;;;;;5491029;26;20451;-58
2024/04/16 08:23:28;;;;;;;5.60;3.27;;;8.40;99.90;;;;;;5491003;26;21033;-59
2024/04/16 08:25:57;;;;;;;4.60;2.43;;;8.50;99.90;;;;;;5490919;26;20226;-58
2024/04/16 08:28:26;;;;;;;6.20;2.40;;;8.50;99.90;;;;;;5490920;26;20496;-58
2024/04/16 08:30:53;;;;;;;6.07;2.77;;;8.60;99.90;;;;;;5490833;26;20788;-58
2024/04/16 08:33:24;;;;;;;6.60;2.50;;;8.60;99.90;;;;;;5489929;26;20494;-58
2024/04/16 08:35:51;;;;;;;5.57;2.30;;;8.70;99.90;;;;;;5490776;26;20555;-58
2024/04/16 08:38:21;;;;;;;3.70;2.30;;;8.80;99.90;;;;;;5490498;26;20435;-58
2024/04/16 08:40:48;;;;;;;7.00;2.57;;;9.00;99.90;;;;;;5490225;26;20568;-58
2024/04/16 08:43:17;;;;;;;4.93;2.60;;;9.20;99.90;;;;;;5490286;26;20443;-57
2024/04/16 08:45:43;;;;;;;3.63;2.07;;;9.30;99.90;;;;;;5490521;26;20496;-57
2024/04/16 08:48:12;;;;;;;5.17;1.87;;;9.40;99.90;;;;;;5490907;26;20451;-57
2024/04/16 08:50:43;;;;;;;4.40;1.97;;;9.60;99.90;;;;;;5490295;26;20598;-57
2024/04/16 08:53:12;;;;;;;2.33;1.63;;;9.80;99.90;;;;;;5490499;26;20577;-57
2024/04/16 08:55:39;;;;;;;6.10;2.43;;;9.90;99.90;;;;;;5490493;26;20448;-57
2024/04/16 08:58:08;;;;;;;6.00;2.63;;;10.10;99.90;;;;;;5490182;26;20464;-57
2024/04/16 09:00:34;;;;;;;5.40;1.73;;;10.30;99.90;;;;;;5489988;26;20471;-57
2024/04/16 09:03:03;;;;;;;7.70;2.77;;;10.50;99.90;;;;;;5490143;26;20561;-57
2024/04/16 09:05:29;;;;;;;6.73;2.13;;;10.50;99.90;;;;;;5490210;26;20451;-57
2024/04/16 09:08:00;;;;;;;7.20;2.40;;;10.50;99.90;;;;;;5490253;26;20516;-57
2024/04/16 09:10:26;;;;;;;8.13;2.40;;;10.60;99.90;;;;;;5490114;26;20814;-57
2024/04/16 09:12:55;;;;;;;5.60;2.40;;;10.70;99.90;;;;;;5490066;26;20507;-57
2024/04/16 09:15:21;;;;;;;9.80;2.37;;;10.50;99.90;;;;;;5489871;26;20680;-57
2024/04/16 09:17:50;;;;;;;9.87;2.33;;;10.50;99.90;;;;;;5490170;26;20451;-57
2024/04/16 09:20:17;;;;;;;4.50;2.00;;;10.50;99.90;;;;;;5489822;26;20483;-57
2024/04/16 09:22:45;;;;;;;8.80;1.80;;;10.50;99.90;;;;;;5489953;26;20447;-58
2024/04/16 09:25:14;;;;;;;5.63;1.80;;;10.50;99.90;;;;;;5489920;26;20444;-58
2024/04/16 09:27:43;;;;;;;6.00;1.80;;;10.50;99.90;;;;;;5489931;26;20973;-58
2024/04/16 09:30:10;;;;;;;5.20;1.80;;;10.40;99.90;;;;;;5489916;26;20471;-58
2024/04/16 09:32:38;;;;;;;5.80;1.30;;;10.50;99.90;;;;;;5490134;26;20447;-58
2024/04/16 09:35:05;;;;;;;5.07;1.90;;;10.50;99.90;;;;;;5489753;26;20455;-57
2024/04/16 09:37:33;;;;;;;2.73;1.40;;;10.60;99.90;;;;;;5489925;26;20451;-57
2024/04/16 09:40:00;;;;;;;3.37;1.67;;;10.70;99.90;;;;;;5489851;26;20463;-57
2024/04/16 09:42:31;;;;;;;4.50;1.40;;;10.80;99.90;;;;;;5489624;26;20630;-57
2024/04/16 09:44:58;;;;;;;8.00;1.40;;;10.90;99.90;;;;;;5489854;26;20448;-57
2024/04/16 09:47:28;;;;;;;7.07;1.80;;;11.10;99.90;;;;;;5489447;26;20448;-57
2024/04/16 09:49:55;;;;;;;6.23;1.40;;;11.10;99.90;;;;;;5489494;26;20468;-57
2024/04/16 09:52:24;;;;;;;10.17;1.90;;;11.10;99.90;;;;;;5489684;26;20993;-57
2024/04/16 09:54:51;;;;;;;5.40;1.00;;;11.10;99.90;;;;;;5488727;26;20468;-57
2024/04/16 09:57:21;;;;;;;5.30;2.20;;;11.20;99.90;;;;;;5489358;26;20992;-57
2024/04/16 09:59:52;;;;;;;5.67;1.63;;;11.40;99.90;;;;;;5489344;26;20452;-57
2024/04/16 10:02:23;;;;;;;4.77;1.87;;;11.60;99.90;;;;;;5489208;26;20537;-57
2024/04/16 10:04:50;;;;;;;5.73;1.50;;;11.90;99.10;;;;;;5489709;26;20460;-57
2024/04/16 10:07:19;;;;;;;5.50;1.67;;;12.00;98.10;;;;;;5489101;26;21020;-57
2024/04/16 10:09:45;;;;;;;9.77;1.63;;;12.00;98.50;;;;;;5489214;26;20467;-57
2024/04/16 10:12:14;;;;;;;6.47;1.50;;;11.90;98.30;;;;;;5489185;26;20452;-57
2024/04/16 10:14:40;;;;;;;4.40;1.27;;;12.00;97.90;;;;;;5489425;26;20210;-57
2024/04/16 10:17:14;;;;;;;5.60;1.87;;;11.90;97.80;;;;;;5489116;26;20573;-57
2024/04/16 10:19:40;;;;;;;6.60;1.60;;;11.90;98.70;;;;;;5489091;26;20472;-57
2024/04/16 10:22:14;;;;;;;7.07;1.60;;;11.80;97.80;;;;;;5489032;26;20801;-57
2024/04/16 10:24:50;;;;;;;4.83;1.43;;;11.70;99.00;;;;;;5489138;26;20207;-57
2024/04/16 10:27:19;;;;;;;8.17;1.80;;;11.60;98.60;;;;;;5488692;26;20455;-57
2024/04/16 10:29:45;;;;;;;6.13;1.40;;;11.50;98.60;;;;;;5488751;26;21020;-57
2024/04/16 10:32:16;;;;;;;3.67;1.27;;;11.60;99.10;;;;;;5488741;26;20447;-57
2024/04/16 10:34:42;;;;;;;3.20;1.50;;;11.50;98.90;;;;;;5489017;26;21036;-57
2024/04/16 10:37:11;;;;;;;4.43;1.27;;;11.50;98.10;;;;;;5488880;26;20499;-57
2024/04/16 10:39:36;;;;;;;9.10;1.60;;;11.50;98.50;;;;;;5488371;26;20467;-57
2024/04/16 10:42:06;;;;;;;7.07;2.43;;;11.50;99.20;;;;;;5488576;26;21071;-57
2024/04/16 10:44:33;;;;;;;4.77;1.80;;;11.40;99.20;;;;;;5488529;26;20310;-57
2024/04/16 10:47:02;;;;;;;7.10;1.60;;;11.40;99.50;;;;;;5488557;26;20496;-57
2024/04/16 10:49:33;;;;;;;7.07;2.27;;;11.40;99.40;;;;;;5488440;26;20471;-56
2024/04/16 10:52:12;;;;;;;6.73;2.63;;;11.30;99.20;;;;;;5488448;26;21171;-57
2024/04/16 10:54:40;;;;;;;8.80;2.50;;;11.30;99.60;;;;;;5488512;26;20451;-58
2024/04/16 10:57:06;;;;;;;4.87;2.10;;;11.20;99.90;;;;;;5488466;26;20448;-59
2024/04/16 10:59:35;;;;;;;5.83;2.70;;;11.10;99.90;;;;;;5488378;26;21065;-58
2024/04/16 11:02:01;;;;;;;15.83;2.27;;;11.00;99.90;;;;;;5488072;26;20440;-57
2024/04/16 11:04:31;;;;;;;4.30;2.00;;;11.00;99.90;;;;;;5488244;26;20550;-59
2024/04/16 11:07:00;;;;;;;3.17;1.20;;;10.90;99.90;;;;;;5490425;26;20697;-59
2024/04/16 11:09:28;;;;;;;1.80;0.90;;;10.70;99.90;;;;;;5491809;26;20524;-58
2024/04/16 11:11:54;;;;;;;1.90;0.80;;;10.60;99.90;;;;;;5492128;26;20443;-58
2024/04/16 11:14:23;;;;;;;3.57;0.93;;;10.60;99.90;;;;;;5492193;26;20520;-58
2024/04/16 11:16:49;;;;;;;3.60;0.87;;;10.50;99.90;;;;;;5491981;26;20708;-58
2024/04/16 11:19:19;;;;;;;1.77;0.83;;;10.40;99.90;;;;;;5492111;26;20615;-58
2024/04/16 11:21:47;;;;;;;2.40;0.90;;;10.30;99.90;;;;;;5491921;26;20515;-58
2024/04/16 11:24:19;;;;;;;1.43;0.63;;;10.20;99.90;;;;;;5491914;26;20451;-58
2024/04/16 11:26:44;;;;;;;1.30;0.80;;;10.20;99.90;;;;;;5491888;26;20867;-58
2024/04/16 11:29:13;;;;;;;1.70;0.83;;;10.10;99.90;;;;;;5492186;26;20503;-58
2024/04/16 11:31:39;;;;;;;2.67;0.70;;;10.10;99.90;;;;;;5491978;26;20704;-58
2024/04/16 11:34:08;;;;;;;4.63;0.67;;;10.10;99.90;;;;;;5491869;26;20488;-58
2024/04/16 11:36:34;;;;;;;3.07;1.03;;;10.10;99.90;;;;;;5491827;26;20617;-58
2024/04/16 11:39:02;;;;;;;2.33;0.87;;;10.20;99.90;;;;;;5491628;26;20503;-58
2024/04/16 11:41:31;;;;;;;2.90;0.80;;;10.40;99.90;;;;;;5491687;26;20708;-58
2024/04/16 11:43:59;;;;;;;1.83;0.70;;;10.50;99.90;;;;;;5491615;26;20456;-58
2024/04/16 11:46:25;;;;;;;2.07;0.70;;;10.60;99.90;;;;;;5491648;26;20463;-58
2024/04/16 11:48:54;;;;;;;2.77;0.90;;;10.60;99.90;;;;;;5491582;26;20569;-58
2024/04/16 11:51:21;;;;;;;2.53;0.70;;;10.70;99.90;;;;;;5491514;26;20455;-58
2024/04/16 11:53:50;;;;;;;2.53;0.50;;;10.80;99.90;;;;;;5491573;26;20436;-58
2024/04/16 11:56:15;;;;;;;2.10;0.70;;;11.10;99.90;;;;;;5491474;26;20455;-58
2024/04/16 11:58:47;;;;;;;1.13;0.50;;;11.30;99.90;;;;;;5491349;26;20507;-58
2024/04/16 12:01:12;;;;;;;1.50;0.80;;;11.60;99.90;;;;;;5491471;26;20214;-58
2024/04/16 12:03:41;;;;;;;3.17;0.70;;;12.00;99.90;;;;;;5491167;26;20914;-57
2024/04/16 12:06:07;;;;;;;3.80;0.73;;;12.60;99.90;;;;;;5491323;26;20303;-58
2024/04/16 12:08:35;;;;;;;11.07;1.43;;;13.00;99.60;;;;;;5491661;26;20463;-58
2024/04/16 12:11:01;;;;;;;3.27;1.00;;;13.20;98.50;;;;;;5491378;26;20544;-58
2024/04/16 12:13:30;;;;;;;3.17;1.30;;;13.30;98.40;;;;;;5491717;26;20467;-57
2024/04/16 12:15:58;;;;;;;6.37;1.10;;;13.40;98.40;;;;;;5491262;26;20302;-57
2024/04/16 12:18:26;;;;;;;3.43;1.00;;;13.40;97.30;;;;;;5490780;26;20447;-57
2024/04/16 12:20:52;;;;;;;2.07;0.97;;;13.50;97.90;;;;;;5491138;26;20471;-57
2024/04/16 12:23:21;;;;;;;4.53;1.83;;;13.60;96.90;;;;;;5491163;26;20486;-57
2024/04/16 12:25:47;;;;;;;5.00;1.43;;;13.60;96.60;;;;;;5491047;26;20218;-57
2024/04/16 12:28:15;;;;;;;3.27;1.40;;;13.60;96.10;;;;;;5491005;26;20491;-57
2024/04/16 12:30:41;;;;;;;4.60;1.00;;;13.90;96.80;;;;;;5491092;26;20231;-57
2024/04/16 12:33:12;;;;;;;2.60;0.63;;;14.40;95.90;;;;;;5491122;26;20549;-57
2024/04/16 12:35:38;;;;;;;4.70;2.23;;;14.80;95.70;;;;;;5491115;26;20210;-57
2024/04/16 12:38:07;;;;;;;4.97;1.40;;;15.20;92.90;;;;;;5491106;26;20846;-57
2024/04/16 12:40:33;;;;;;;4.07;1.50;;;15.30;92.70;;;;;;5491151;26;20463;-57
2024/04/16 12:43:01;;;;;;;3.90;1.33;;;15.30;92.50;;;;;;5491299;26;20455;-57
2024/04/16 12:45:27;;;;;;;3.30;1.07;;;15.20;93.10;;;;;;5490865;26;20230;-57
2024/04/16 12:47:55;;;;;;;4.47;1.13;;;15.20;92.50;;;;;;5490824;26;20565;-57
2024/04/16 12:50:24;;;;;;;6.70;1.60;;;15.20;92.40;;;;;;5490902;26;20554;-57
2024/04/16 12:52:52;;;;;;;2.40;1.40;;;15.30;91.80;;;;;;5490979;26;20794;-58
2024/04/16 12:55:19;;;;;;;4.33;1.37;;;15.40;90.90;;;;;;5490831;26;20797;-57